sensor_id;sensor_type;location;lat;lon;timestamp;pressure;altitude;pressure_sealevel;temperature;humidity
16451;BME280;12243;42.708;23.310;2023-08-24T00:01:53;95144.16;;;25.45;69.44
16451;BME280;12243;42.708;23.310;2023-08-24T00:04:20;95146.25;;;25.43;69.60
16451;BME280;12243;42.708;23.310;2023-08-24T00:06:48;95145.81;;;25.46;69.80
16451;BME280;12243;42.708;23.310;2023-08-24T00:09:15;95145.25;;;25.37;69.83
16451;BME280;12243;42.708;23.310;2023-08-24T00:11:41;95144.28;;;25.32;70.30
16451;BME280;12243;42.708;23.310;2023-08-24T00:14:09;95136.09;;;25.27;69.72
16451;BME280;12243;42.708;23.310;2023-08-24T00:16:37;95138.06;;;25.38;70.90
16451;BME280;12243;42.708;23.310;2023-08-24T00:19:04;95142.50;;;25.51;70.31
16451;BME280;12243;42.708;23.310;2023-08-24T00:21:31;95133.81;;;25.55;69.87
16451;BME280;12243;42.708;23.310;2023-08-24T00:23:58;95129.75;;;25.53;69.91
16451;BME280;12243;42.708;23.310;2023-08-24T00:26:25;95135.47;;;25.56;69.82
16451;BME280;12243;42.708;23.310;2023-08-24T00:28:52;95133.28;;;25.47;69.94
16451;BME280;12243;42.708;23.310;2023-08-24T00:31:19;95136.44;;;25.37;71.08
16451;BME280;12243;42.708;23.310;2023-08-24T00:33:49;95142.38;;;25.39;70.87
16451;BME280;12243;42.708;23.310;2023-08-24T00:36:16;95141.00;;;25.30;70.83
16451;BME280;12243;42.708;23.310;2023-08-24T00:38:44;95146.34;;;25.30;70.62
16451;BME280;12243;42.708;23.310;2023-08-24T00:41:16;95151.56;;;25.18;70.50
16451;BME280;12243;42.708;23.310;2023-08-24T00:43:43;95156.66;;;25.19;70.82
16451;BME280;12243;42.708;23.310;2023-08-24T00:46:10;95146.47;;;25.03;71.33
16451;BME280;12243;42.708;23.310;2023-08-24T00:48:37;95136.28;;;25.00;71.58
16451;BME280;12243;42.708;23.310;2023-08-24T00:54:21;95139.59;;;24.89;71.94
16451;BME280;12243;42.708;23.310;2023-08-24T00:56:49;95142.69;;;24.86;71.90
16451;BME280;12243;42.708;23.310;2023-08-24T00:59:15;95145.06;;;25.07;71.53
16451;BME280;12243;42.708;23.310;2023-08-24T01:01:44;95154.66;;;25.15;70.56
16451;BME280;12243;42.708;23.310;2023-08-24T01:04:13;95150.19;;;25.02;70.75
16451;BME280;12243;42.708;23.310;2023-08-24T01:06:40;95150.69;;;24.86;70.47
16451;BME280;12243;42.708;23.310;2023-08-24T01:09:07;95146.03;;;24.75;71.71
16451;BME280;12243;42.708;23.310;2023-08-24T01:11:43;95142.00;;;24.65;71.33
16451;BME280;12243;42.708;23.310;2023-08-24T01:14:23;95133.13;;;24.71;72.18
16451;BME280;12243;42.708;23.310;2023-08-24T01:16:58;95129.91;;;24.63;71.54
16451;BME280;12243;42.708;23.310;2023-08-24T01:19:36;95129.53;;;24.59;71.64
16451;BME280;12243;42.708;23.310;2023-08-24T01:22:08;95133.00;;;24.60;72.93
16451;BME280;12243;42.708;23.310;2023-08-24T01:24:46;95130.75;;;24.57;71.85
16451;BME280;12243;42.708;23.310;2023-08-24T01:27:16;95132.06;;;24.41;71.58
16451;BME280;12243;42.708;23.310;2023-08-24T01:29:43;95140.66;;;24.36;73.97
16451;BME280;12243;42.708;23.310;2023-08-24T01:32:10;95141.84;;;24.54;73.09
16451;BME280;12243;42.708;23.310;2023-08-24T01:34:37;95143.78;;;24.71;71.42
16451;BME280;12243;42.708;23.310;2023-08-24T01:37:05;95139.88;;;24.81;70.89
16451;BME280;12243;42.708;23.310;2023-08-24T01:39:41;95142.47;;;24.94;70.12
16451;BME280;12243;42.708;23.310;2023-08-24T01:42:11;95147.88;;;24.74;70.39
16451;BME280;12243;42.708;23.310;2023-08-24T01:44:47;95147.25;;;24.79;70.56
16451;BME280;12243;42.708;23.310;2023-08-24T01:47:15;95155.84;;;24.81;70.52
16451;BME280;12243;42.708;23.310;2023-08-24T01:49:43;95150.13;;;24.77;70.74
16451;BME280;12243;42.708;23.310;2023-08-24T01:52:11;95155.88;;;24.74;70.12
16451;BME280;12243;42.708;23.310;2023-08-24T01:54:39;95150.34;;;24.76;70.40
16451;BME280;12243;42.708;23.310;2023-08-24T01:57:06;95152.44;;;24.67;70.49
16451;BME280;12243;42.708;23.310;2023-08-24T01:59:33;95154.53;;;24.58;70.67
16451;BME280;12243;42.708;23.310;2023-08-24T02:02:02;95158.22;;;24.51;70.80
16451;BME280;12243;42.708;23.310;2023-08-24T02:04:29;95157.63;;;24.55;71.23
16451;BME280;12243;42.708;23.310;2023-08-24T02:06:56;95159.63;;;24.60;71.02
16451;BME280;12243;42.708;23.310;2023-08-24T02:09:23;95151.19;;;24.69;70.42
16451;BME280;12243;42.708;23.310;2023-08-24T02:11:51;95156.94;;;24.66;70.01
16451;BME280;12243;42.708;23.310;2023-08-24T02:14:18;95148.75;;;24.61;69.77
16451;BME280;12243;42.708;23.310;2023-08-24T02:16:45;95152.28;;;24.55;70.48
16451;BME280;12243;42.708;23.310;2023-08-24T02:19:13;95158.22;;;24.57;70.60
16451;BME280;12243;42.708;23.310;2023-08-24T02:21:40;95165.66;;;24.42;69.70
16451;BME280;12243;42.708;23.310;2023-08-24T02:24:07;95157.13;;;24.13;71.47
16451;BME280;12243;42.708;23.310;2023-08-24T02:26:34;95153.44;;;24.08;71.64
16451;BME280;12243;42.708;23.310;2023-08-24T02:29:00;95150.59;;;23.96;72.05
16451;BME280;12243;42.708;23.310;2023-08-24T02:31:28;95144.50;;;23.75;73.21
16451;BME280;12243;42.708;23.310;2023-08-24T02:33:55;95148.75;;;23.90;74.83
16451;BME280;12243;42.708;23.310;2023-08-24T02:36:24;95142.63;;;24.03;73.68
16451;BME280;12243;42.708;23.310;2023-08-24T02:38:51;95137.44;;;24.14;73.21
16451;BME280;12243;42.708;23.310;2023-08-24T02:41:18;95133.72;;;24.29;72.52
16451;BME280;12243;42.708;23.310;2023-08-24T02:43:44;95127.97;;;24.45;72.15
16451;BME280;12243;42.708;23.310;2023-08-24T02:46:11;95132.84;;;24.55;71.72
16451;BME280;12243;42.708;23.310;2023-08-24T02:48:38;95139.75;;;24.62;71.32
16451;BME280;12243;42.708;23.310;2023-08-24T02:51:05;95140.16;;;24.66;70.88
16451;BME280;12243;42.708;23.310;2023-08-24T02:53:34;95135.28;;;24.56;70.09
16451;BME280;12243;42.708;23.310;2023-08-24T02:56:00;95139.22;;;24.34;71.23
16451;BME280;12243;42.708;23.310;2023-08-24T02:58:27;95142.41;;;23.97;72.78
16451;BME280;12243;42.708;23.310;2023-08-24T03:00:55;95148.56;;;23.58;74.64
16451;BME280;12243;42.708;23.310;2023-08-24T03:03:22;95141.22;;;23.34;76.65
16451;BME280;12243;42.708;23.310;2023-08-24T03:05:56;95144.47;;;23.36;77.41
16451;BME280;12243;42.708;23.310;2023-08-24T03:08:23;95144.88;;;23.46;76.50
16451;BME280;12243;42.708;23.310;2023-08-24T03:10:52;95148.56;;;23.45;77.43
16451;BME280;12243;42.708;23.310;2023-08-24T03:13:19;95158.81;;;23.54;76.98
16451;BME280;12243;42.708;23.310;2023-08-24T03:15:46;95157.78;;;23.62;75.40
16451;BME280;12243;42.708;23.310;2023-08-24T03:18:14;95156.75;;;23.63;75.71
16451;BME280;12243;42.708;23.310;2023-08-24T03:20:42;95158.63;;;23.69;74.70
16451;BME280;12243;42.708;23.310;2023-08-24T03:23:08;95160.44;;;23.62;75.00
16451;BME280;12243;42.708;23.310;2023-08-24T03:25:36;95159.19;;;23.25;76.82
16451;BME280;12243;42.708;23.310;2023-08-24T03:28:05;95162.84;;;23.11;78.71
16451;BME280;12243;42.708;23.310;2023-08-24T03:30:33;95158.75;;;23.15;78.46
16451;BME280;12243;42.708;23.310;2023-08-24T03:33:00;95160.81;;;23.06;78.07
16451;BME280;12243;42.708;23.310;2023-08-24T03:35:28;95164.81;;;22.89;78.60
16451;BME280;12243;42.708;23.310;2023-08-24T03:37:56;95172.16;;;22.87;79.16
16451;BME280;12243;42.708;23.310;2023-08-24T03:40:23;95180.19;;;23.00;79.46
16451;BME280;12243;42.708;23.310;2023-08-24T03:42:50;95187.41;;;23.19;78.86
16451;BME280;12243;42.708;23.310;2023-08-24T03:45:19;95187.00;;;23.22;78.53
16451;BME280;12243;42.708;23.310;2023-08-24T03:47:46;95188.03;;;23.35;78.39
16451;BME280;12243;42.708;23.310;2023-08-24T03:50:13;95185.78;;;23.38;78.05
16451;BME280;12243;42.708;23.310;2023-08-24T03:52:40;95183.75;;;23.47;77.87
16451;BME280;12243;42.708;23.310;2023-08-24T03:55:08;95188.44;;;23.51;77.29
16451;BME280;12243;42.708;23.310;2023-08-24T03:57:34;95191.94;;;23.52;77.57
16451;BME280;12243;42.708;23.310;2023-08-24T04:00:04;95187.00;;;23.49;77.29
16451;BME280;12243;42.708;23.310;2023-08-24T04:02:40;95187.00;;;23.42;77.95
16451;BME280;12243;42.708;23.310;2023-08-24T04:05:11;95187.81;;;23.43;77.41
16451;BME280;12243;42.708;23.310;2023-08-24T04:07:37;95186.19;;;23.35;77.92
16451;BME280;12243;42.708;23.310;2023-08-24T04:10:07;95194.97;;;23.22;79.01
16451;BME280;12243;42.708;23.310;2023-08-24T04:12:34;95188.22;;;23.26;78.52
16451;BME280;12243;42.708;23.310;2023-08-24T04:15:02;95188.66;;;23.30;78.94
16451;BME280;12243;42.708;23.310;2023-08-24T04:17:29;95181.09;;;23.47;78.60
16451;BME280;12243;42.708;23.310;2023-08-24T04:19:57;95187.88;;;23.69;77.67
16451;BME280;12243;42.708;23.310;2023-08-24T04:22:24;95190.94;;;23.86;75.26
16451;BME280;12243;42.708;23.310;2023-08-24T04:24:50;95197.06;;;23.80;75.02
16451;BME280;12243;42.708;23.310;2023-08-24T04:27:17;95195.63;;;23.64;75.12
16451;BME280;12243;42.708;23.310;2023-08-24T04:29:44;95197.25;;;23.52;76.46
16451;BME280;12243;42.708;23.310;2023-08-24T04:32:11;95201.94;;;23.37;76.33
16451;BME280;12243;42.708;23.310;2023-08-24T04:34:38;95203.34;;;23.19;77.89
16451;BME280;12243;42.708;23.310;2023-08-24T04:37:06;95193.97;;;23.37;78.67
16451;BME280;12243;42.708;23.310;2023-08-24T04:39:33;95195.22;;;23.67;77.52
16451;BME280;12243;42.708;23.310;2023-08-24T04:42:00;95206.25;;;23.91;76.17
16451;BME280;12243;42.708;23.310;2023-08-24T04:44:27;95195.59;;;24.04;75.08
16451;BME280;12243;42.708;23.310;2023-08-24T04:46:54;95188.81;;;24.21;73.98
16451;BME280;12243;42.708;23.310;2023-08-24T04:49:21;95187.56;;;24.37;73.47
16451;BME280;12243;42.708;23.310;2023-08-24T04:51:48;95182.41;;;24.49;72.80
16451;BME280;12243;42.708;23.310;2023-08-24T04:54:17;95195.31;;;24.52;72.72
16451;BME280;12243;42.708;23.310;2023-08-24T04:56:44;95190.97;;;24.64;71.96
16451;BME280;12243;42.708;23.310;2023-08-24T04:59:10;95199.09;;;24.83;71.22
16451;BME280;12243;42.708;23.310;2023-08-24T05:01:37;95198.81;;;24.98;70.01
16451;BME280;12243;42.708;23.310;2023-08-24T05:04:04;95196.91;;;25.11;69.52
16451;BME280;12243;42.708;23.310;2023-08-24T05:06:31;95207.59;;;25.11;69.77
16451;BME280;12243;42.708;23.310;2023-08-24T05:08:58;95210.41;;;25.16;69.53
16451;BME280;12243;42.708;23.310;2023-08-24T05:11:27;95216.16;;;25.13;69.39
16451;BME280;12243;42.708;23.310;2023-08-24T05:13:55;95207.50;;;25.25;69.34
16451;BME280;12243;42.708;23.310;2023-08-24T05:16:22;95209.47;;;25.36;68.46
16451;BME280;12243;42.708;23.310;2023-08-24T05:18:49;95213.66;;;25.25;68.78
16451;BME280;12243;42.708;23.310;2023-08-24T05:21:15;95226.81;;;25.13;69.59
16451;BME280;12243;42.708;23.310;2023-08-24T05:23:42;95222.13;;;25.15;69.27
16451;BME280;12243;42.708;23.310;2023-08-24T05:26:09;95226.81;;;25.13;69.35
16451;BME280;12243;42.708;23.310;2023-08-24T05:28:37;95226.78;;;25.20;69.18
16451;BME280;12243;42.708;23.310;2023-08-24T05:31:04;95227.66;;;25.07;69.56
16451;BME280;12243;42.708;23.310;2023-08-24T05:33:31;95230.94;;;25.09;68.69
16451;BME280;12243;42.708;23.310;2023-08-24T05:35:58;95233.84;;;25.01;69.78
16451;BME280;12243;42.708;23.310;2023-08-24T05:38:25;95228.75;;;24.93;68.91
16451;BME280;12243;42.708;23.310;2023-08-24T05:40:52;95229.38;;;24.88;69.95
16451;BME280;12243;42.708;23.310;2023-08-24T05:43:19;95220.28;;;25.03;69.86
16451;BME280;12243;42.708;23.310;2023-08-24T05:45:47;95225.19;;;25.12;69.12
16451;BME280;12243;42.708;23.310;2023-08-24T05:48:15;95229.97;;;25.42;68.36
16451;BME280;12243;42.708;23.310;2023-08-24T05:50:45;95236.41;;;25.59;66.63
16451;BME280;12243;42.708;23.310;2023-08-24T05:53:12;95241.06;;;25.39;66.48
16451;BME280;12243;42.708;23.310;2023-08-24T05:55:39;95243.56;;;25.27;67.35
16451;BME280;12243;42.708;23.310;2023-08-24T05:58:06;95238.56;;;25.44;67.28
16451;BME280;12243;42.708;23.310;2023-08-24T06:00:32;95243.75;;;25.64;65.82
16451;BME280;12243;42.708;23.310;2023-08-24T06:03:01;95237.41;;;25.90;65.37
16451;BME280;12243;42.708;23.310;2023-08-24T06:05:29;95241.69;;;26.41;64.24
16451;BME280;12243;42.708;23.310;2023-08-24T06:07:56;95242.47;;;26.67;62.19
16451;BME280;12243;42.708;23.310;2023-08-24T06:10:23;95243.25;;;27.04;60.78
16451;BME280;12243;42.708;23.310;2023-08-24T06:12:51;95237.03;;;27.40;60.13
16451;BME280;12243;42.708;23.310;2023-08-24T06:15:18;95240.44;;;27.89;61.25
16451;BME280;12243;42.708;23.310;2023-08-24T06:17:49;95241.28;;;28.48;57.81
16451;BME280;12243;42.708;23.310;2023-08-24T06:20:17;95242.03;;;29.08;56.14
16451;BME280;12243;42.708;23.310;2023-08-24T06:22:44;95240.59;;;29.46;52.50
16451;BME280;12243;42.708;23.310;2023-08-24T06:25:11;95235.84;;;29.07;53.04
16451;BME280;12243;42.708;23.310;2023-08-24T06:27:38;95244.16;;;28.82;54.88
16451;BME280;12243;42.708;23.310;2023-08-24T06:30:06;95238.50;;;28.55;54.50
16451;BME280;12243;42.708;23.310;2023-08-24T06:32:33;95241.50;;;28.59;55.30
16451;BME280;12243;42.708;23.310;2023-08-24T06:35:00;95243.97;;;28.48;55.03
16451;BME280;12243;42.708;23.310;2023-08-24T06:37:28;95238.84;;;28.12;56.58
16451;BME280;12243;42.708;23.310;2023-08-24T06:39:55;95243.03;;;28.08;57.74
16451;BME280;12243;42.708;23.310;2023-08-24T06:42:21;95244.31;;;28.29;59.09
16451;BME280;12243;42.708;23.310;2023-08-24T06:44:48;95256.28;;;29.08;57.39
16451;BME280;12243;42.708;23.310;2023-08-24T06:47:16;95246.28;;;29.61;52.97
16451;BME280;12243;42.708;23.310;2023-08-24T06:49:43;95245.47;;;29.77;52.24
16451;BME280;12243;42.708;23.310;2023-08-24T06:52:10;95233.78;;;30.17;51.32
16451;BME280;12243;42.708;23.310;2023-08-24T06:54:38;95239.16;;;30.34;49.95
16451;BME280;12243;42.708;23.310;2023-08-24T06:57:05;95239.47;;;30.37;49.99
16451;BME280;12243;42.708;23.310;2023-08-24T06:59:32;95239.84;;;30.63;49.59
16451;BME280;12243;42.708;23.310;2023-08-24T07:01:59;95234.94;;;30.99;50.15
16451;BME280;12243;42.708;23.310;2023-08-24T07:04:27;95224.94;;;30.94;47.93
16451;BME280;12243;42.708;23.310;2023-08-24T07:06:55;95228.53;;;31.27;49.83
16451;BME280;12243;42.708;23.310;2023-08-24T07:09:21;95232.56;;;31.78;49.11
16451;BME280;12243;42.708;23.310;2023-08-24T07:11:50;95233.44;;;32.16;45.61
16451;BME280;12243;42.708;23.310;2023-08-24T07:14:16;95227.31;;;31.94;45.82
16451;BME280;12243;42.708;23.310;2023-08-24T07:16:43;95222.50;;;31.69;46.40
16451;BME280;12243;42.708;23.310;2023-08-24T07:19:10;95218.66;;;31.33;46.04
16451;BME280;12243;42.708;23.310;2023-08-24T07:22:07;95223.03;;;31.39;47.28
16451;BME280;12243;42.708;23.310;2023-08-24T07:24:34;95211.53;;;31.48;46.04
16451;BME280;12243;42.708;23.310;2023-08-24T07:27:03;95216.72;;;31.55;46.19
16451;BME280;12243;42.708;23.310;2023-08-24T07:29:30;95214.09;;;31.60;45.62
16451;BME280;12243;42.708;23.310;2023-08-24T07:31:57;95209.81;;;31.64;45.85
16451;BME280;12243;42.708;23.310;2023-08-24T07:34:24;95215.28;;;31.74;47.70
16451;BME280;12243;42.708;23.310;2023-08-24T07:36:51;95215.56;;;32.05;45.38
16451;BME280;12243;42.708;23.310;2023-08-24T07:39:18;95215.19;;;32.29;47.12
16451;BME280;12243;42.708;23.310;2023-08-24T07:41:45;95212.69;;;32.54;45.55
16451;BME280;12243;42.708;23.310;2023-08-24T07:44:13;95216.50;;;32.63;46.34
16451;BME280;12243;42.708;23.310;2023-08-24T07:46:40;95212.78;;;32.75;44.46
16451;BME280;12243;42.708;23.310;2023-08-24T07:49:07;95212.69;;;32.54;42.25
16451;BME280;12243;42.708;23.310;2023-08-24T07:51:34;95206.25;;;32.23;42.80
16451;BME280;12243;42.708;23.310;2023-08-24T07:54:01;95204.88;;;32.15;43.35
16451;BME280;12243;42.708;23.310;2023-08-24T07:56:30;95205.25;;;32.34;42.27
16451;BME280;12243;42.708;23.310;2023-08-24T07:58:56;95203.38;;;32.35;41.81
16451;BME280;12243;42.708;23.310;2023-08-24T08:01:25;95205.53;;;32.33;42.41
16451;BME280;12243;42.708;23.310;2023-08-24T08:03:52;95204.31;;;32.56;41.89
16451;BME280;12243;42.708;23.310;2023-08-24T08:06:18;95208.41;;;32.63;41.16
16451;BME280;12243;42.708;23.310;2023-08-24T08:08:47;95207.59;;;32.63;41.86
16451;BME280;12243;42.708;23.310;2023-08-24T08:11:15;95199.31;;;32.80;41.05
16451;BME280;12243;42.708;23.310;2023-08-24T08:13:43;95202.09;;;32.95;40.36
16451;BME280;12243;42.708;23.310;2023-08-24T08:16:09;95205.09;;;33.04;40.06
16451;BME280;12243;42.708;23.310;2023-08-24T08:18:38;95204.06;;;33.10;39.69
16451;BME280;12243;42.708;23.310;2023-08-24T08:21:08;95198.34;;;32.96;40.64
16451;BME280;12243;42.708;23.310;2023-08-24T08:23:35;95200.34;;;33.31;40.06
16451;BME280;12243;42.708;23.310;2023-08-24T08:26:02;95199.03;;;33.44;39.30
16451;BME280;12243;42.708;23.310;2023-08-24T08:28:29;95209.31;;;33.52;39.25
16451;BME280;12243;42.708;23.310;2023-08-24T08:30:59;95199.88;;;33.70;39.94
16451;BME280;12243;42.708;23.310;2023-08-24T08:33:25;95197.72;;;33.87;39.04
16451;BME280;12243;42.708;23.310;2023-08-24T08:35:54;95185.59;;;34.10;38.52
16451;BME280;12243;42.708;23.310;2023-08-24T08:38:21;95193.13;;;34.29;37.57
16451;BME280;12243;42.708;23.310;2023-08-24T08:40:53;95187.19;;;34.22;37.32
16451;BME280;12243;42.708;23.310;2023-08-24T08:43:22;95181.75;;;34.27;37.65
16451;BME280;12243;42.708;23.310;2023-08-24T08:45:49;95190.13;;;34.41;36.78
16451;BME280;12243;42.708;23.310;2023-08-24T08:48:19;95181.47;;;34.49;36.64
16451;BME280;12243;42.708;23.310;2023-08-24T08:50:48;95179.00;;;34.57;36.57
16451;BME280;12243;42.708;23.310;2023-08-24T08:53:20;95175.97;;;34.74;35.95
16451;BME280;12243;42.708;23.310;2023-08-24T08:55:47;95174.06;;;34.75;36.24
16451;BME280;12243;42.708;23.310;2023-08-24T08:58:14;95168.03;;;34.93;36.07
16451;BME280;12243;42.708;23.310;2023-08-24T09:00:41;95164.81;;;35.01;35.88
16451;BME280;12243;42.708;23.310;2023-08-24T09:03:08;95160.97;;;34.97;35.86
16451;BME280;12243;42.708;23.310;2023-08-24T09:05:37;95157.72;;;35.05;35.89
16451;BME280;12243;42.708;23.310;2023-08-24T09:08:05;95153.81;;;35.27;35.71
16451;BME280;12243;42.708;23.310;2023-08-24T09:10:33;95148.22;;;35.58;35.52
16451;BME280;12243;42.708;23.310;2023-08-24T09:13:00;95143.59;;;35.58;35.38
16451;BME280;12243;42.708;23.310;2023-08-24T09:15:27;95136.47;;;35.28;35.75
16451;BME280;12243;42.708;23.310;2023-08-24T09:17:55;95142.28;;;35.06;37.80
16451;BME280;12243;42.708;23.310;2023-08-24T09:20:22;95132.03;;;35.03;37.25
16451;BME280;12243;42.708;23.310;2023-08-24T09:22:49;95133.75;;;35.28;35.85
16451;BME280;12243;42.708;23.310;2023-08-24T09:25:19;95127.94;;;35.45;35.82
16451;BME280;12243;42.708;23.310;2023-08-24T09:27:56;95123.88;;;35.47;35.48
16451;BME280;12243;42.708;23.310;2023-08-24T09:30:22;95118.69;;;35.56;35.32
16451;BME280;12243;42.708;23.310;2023-08-24T09:32:49;95118.91;;;35.60;35.35
16451;BME280;12243;42.708;23.310;2023-08-24T09:35:16;95120.03;;;35.59;35.82
16451;BME280;12243;42.708;23.310;2023-08-24T09:37:43;95113.25;;;35.56;34.73
16451;BME280;12243;42.708;23.310;2023-08-24T09:40:11;95111.94;;;35.48;34.93
16451;BME280;12243;42.708;23.310;2023-08-24T09:42:39;95101.47;;;35.37;35.59
16451;BME280;12243;42.708;23.310;2023-08-24T09:45:12;95100.25;;;35.58;35.72
16451;BME280;12243;42.708;23.310;2023-08-24T09:47:39;95101.81;;;35.93;35.21
16451;BME280;12243;42.708;23.310;2023-08-24T09:50:11;95097.59;;;36.11;35.07
16451;BME280;12243;42.708;23.310;2023-08-24T09:52:42;95094.66;;;36.08;34.33
16451;BME280;12243;42.708;23.310;2023-08-24T09:55:09;95094.63;;;36.13;33.86
16451;BME280;12243;42.708;23.310;2023-08-24T09:57:38;95097.59;;;36.11;34.20
16451;BME280;12243;42.708;23.310;2023-08-24T10:00:06;95086.31;;;36.28;33.52
16451;BME280;12243;42.708;23.310;2023-08-24T10:02:44;95082.28;;;36.49;33.16
16451;BME280;12243;42.708;23.310;2023-08-24T10:05:14;95085.78;;;36.93;32.37
16451;BME280;12243;42.708;23.310;2023-08-24T10:07:49;95074.84;;;37.17;31.83
16451;BME280;12243;42.708;23.310;2023-08-24T10:10:19;95077.16;;;36.67;32.08
16451;BME280;12243;42.708;23.310;2023-08-24T10:12:50;95072.19;;;36.26;33.05
16451;BME280;12243;42.708;23.310;2023-08-24T10:15:18;95076.72;;;36.36;33.20
16451;BME280;12243;42.708;23.310;2023-08-24T10:17:49;95070.00;;;36.76;32.13
16451;BME280;12243;42.708;23.310;2023-08-24T10:20:18;95069.19;;;37.32;31.24
16451;BME280;12243;42.708;23.310;2023-08-24T10:22:46;95073.06;;;37.64;30.55
16451;BME280;12243;42.708;23.310;2023-08-24T10:25:16;95083.47;;;38.22;30.04
16451;BME280;12243;42.708;23.310;2023-08-24T10:27:43;95079.84;;;38.68;28.36
16451;BME280;12243;42.708;23.310;2023-08-24T10:30:14;95070.78;;;38.45;28.83
16451;BME280;12243;42.708;23.310;2023-08-24T10:32:43;95072.69;;;37.84;29.31
16451;BME280;12243;42.708;23.310;2023-08-24T10:35:12;95060.19;;;37.18;30.02
16451;BME280;12243;42.708;23.310;2023-08-24T10:37:44;95057.66;;;36.84;31.11
16451;BME280;12243;42.708;23.310;2023-08-24T10:40:13;95061.22;;;36.36;31.58
16451;BME280;12243;42.708;23.310;2023-08-24T10:42:46;95065.56;;;35.84;31.86
16451;BME280;12243;42.708;23.310;2023-08-24T10:45:13;95060.47;;;35.53;32.36
16451;BME280;12243;42.708;23.310;2023-08-24T10:47:44;95054.69;;;35.26;32.62
16451;BME280;12243;42.708;23.310;2023-08-24T10:50:14;95062.44;;;34.98;34.27
16451;BME280;12243;42.708;23.310;2023-08-24T10:52:43;95078.41;;;34.45;36.95
16451;BME280;12243;42.708;23.310;2023-08-24T10:55:23;95094.22;;;33.46;39.73
16451;BME280;12243;42.708;23.310;2023-08-24T10:57:57;95072.97;;;32.51;42.14
16451;BME280;12243;42.708;23.310;2023-08-24T11:00:26;95076.66;;;32.30;42.13
16451;BME280;12243;42.708;23.310;2023-08-24T11:02:53;95061.78;;;31.79;41.98
16451;BME280;12243;42.708;23.310;2023-08-24T11:05:23;95062.69;;;31.53;40.80
16451;BME280;12243;42.708;23.310;2023-08-24T11:07:54;95067.13;;;31.32;39.83
16451;BME280;12243;42.708;23.310;2023-08-24T11:10:23;95050.00;;;31.16;41.39
16451;BME280;12243;42.708;23.310;2023-08-24T11:13:10;95055.84;;;31.08;41.73
16451;BME280;12243;42.708;23.310;2023-08-24T11:15:38;95050.19;;;31.09;42.04
16451;BME280;12243;42.708;23.310;2023-08-24T11:18:13;95054.75;;;31.04;42.36
16451;BME280;12243;42.708;23.310;2023-08-24T11:20:42;95052.50;;;30.96;42.87
16451;BME280;12243;42.708;23.310;2023-08-24T11:23:10;95045.03;;;31.03;42.82
16451;BME280;12243;42.708;23.310;2023-08-24T11:25:37;95053.75;;;31.15;43.23
16451;BME280;12243;42.708;23.310;2023-08-24T11:28:04;95045.97;;;31.19;42.39
16451;BME280;12243;42.708;23.310;2023-08-24T11:30:32;95050.63;;;31.28;42.07
16451;BME280;12243;42.708;23.310;2023-08-24T11:32:59;95056.03;;;31.28;42.36
16451;BME280;12243;42.708;23.310;2023-08-24T11:35:26;95066.44;;;31.20;42.51
16451;BME280;12243;42.708;23.310;2023-08-24T11:37:56;95062.84;;;31.09;41.60
16451;BME280;12243;42.708;23.310;2023-08-24T11:40:23;95069.97;;;30.71;42.21
16451;BME280;12243;42.708;23.310;2023-08-24T11:42:55;95066.56;;;30.54;42.77
16451;BME280;12243;42.708;23.310;2023-08-24T11:45:22;95062.75;;;30.50;42.86
16451;BME280;12243;42.708;23.310;2023-08-24T11:47:50;95052.28;;;30.48;43.11
16451;BME280;12243;42.708;23.310;2023-08-24T11:50:17;95052.47;;;30.42;43.71
16451;BME280;12243;42.708;23.310;2023-08-24T11:52:44;95053.09;;;30.27;44.99
16451;BME280;12243;42.708;23.310;2023-08-24T11:55:12;95048.47;;;30.05;46.06
16451;BME280;12243;42.708;23.310;2023-08-24T11:57:39;95054.69;;;30.06;46.97
16451;BME280;12243;42.708;23.310;2023-08-24T12:00:07;95047.13;;;30.03;47.69
16451;BME280;12243;42.708;23.310;2023-08-24T12:02:36;95040.41;;;29.83;48.40
16451;BME280;12243;42.708;23.310;2023-08-24T12:05:06;95042.94;;;29.73;49.69
16451;BME280;12243;42.708;23.310;2023-08-24T12:07:33;95034.75;;;29.63;51.74
16451;BME280;12243;42.708;23.310;2023-08-24T12:10:01;95025.66;;;29.30;52.46
16451;BME280;12243;42.708;23.310;2023-08-24T12:12:29;95021.09;;;29.31;53.35
16451;BME280;12243;42.708;23.310;2023-08-24T12:14:56;95007.03;;;29.40;53.49
16451;BME280;12243;42.708;23.310;2023-08-24T12:17:24;94999.13;;;29.51;53.48
16451;BME280;12243;42.708;23.310;2023-08-24T12:19:58;95007.25;;;29.56;54.42
16451;BME280;12243;42.708;23.310;2023-08-24T12:22:25;95004.81;;;29.71;53.10
16451;BME280;12243;42.708;23.310;2023-08-24T12:24:53;95011.63;;;29.79;53.12
16451;BME280;12243;42.708;23.310;2023-08-24T12:27:21;95011.72;;;30.06;51.98
16451;BME280;12243;42.708;23.310;2023-08-24T12:29:50;95013.81;;;30.04;51.47
16451;BME280;12243;42.708;23.310;2023-08-24T12:32:17;95011.19;;;30.09;51.71
16451;BME280;12243;42.708;23.310;2023-08-24T12:34:45;95020.72;;;30.38;49.88
16451;BME280;12243;42.708;23.310;2023-08-24T12:37:12;95028.31;;;30.47;48.72
16451;BME280;12243;42.708;23.310;2023-08-24T12:39:39;95027.41;;;30.63;47.82
16451;BME280;12243;42.708;23.310;2023-08-24T12:42:06;95029.78;;;30.81;46.79
16451;BME280;12243;42.708;23.310;2023-08-24T12:44:33;95027.75;;;30.94;46.04
16451;BME280;12243;42.708;23.310;2023-08-24T12:47:04;95034.84;;;31.05;47.24
16451;BME280;12243;42.708;23.310;2023-08-24T12:49:31;95036.22;;;31.07;48.35
16451;BME280;12243;42.708;23.310;2023-08-24T12:51:58;95033.22;;;31.04;49.91
16451;BME280;12243;42.708;23.310;2023-08-24T12:54:25;95043.75;;;30.56;51.89
16451;BME280;12243;42.708;23.310;2023-08-24T12:56:52;95036.34;;;30.42;51.64
16451;BME280;12243;42.708;23.310;2023-08-24T12:59:18;95045.25;;;30.47;50.97